sensor_id;sensor_type;location;lat;lon;timestamp;P1;durP1;ratioP1;P2;durP2;ratioP2
55065;SDS011;40964;42.114;24.220;2023-09-12T00:01:06;2.28;;;1.55;;
55065;SDS011;40964;42.114;24.220;2023-09-12T00:03:32;1.70;;;1.40;;
55065;SDS011;40964;42.114;24.220;2023-09-12T00:05:59;10.68;;;3.40;;
55065;SDS011;40964;42.114;24.220;2023-09-12T00:08:26;10.23;;;4.03;;
55065;SDS011;40964;42.114;24.220;2023-09-12T00:11:25;10.18;;;4.57;;
55065;SDS011;40964;42.114;24.220;2023-09-12T00:13:43;6.05;;;2.75;;
55065;SDS011;40964;42.114;24.220;2023-09-12T00:16:09;7.65;;;2.17;;
55065;SDS011;40964;42.114;24.220;2023-09-12T00:18:35;6.13;;;1.90;;
55065;SDS011;40964;42.114;24.220;2023-09-12T00:21:04;1.70;;;1.50;;
55065;SDS011;40964;42.114;24.220;2023-09-12T00:23:29;3.10;;;1.75;;
55065;SDS011;40964;42.114;24.220;2023-09-12T00:25:56;3.05;;;1.85;;
55065;SDS011;40964;42.114;24.220;2023-09-12T00:28:22;2.85;;;1.33;;
55065;SDS011;40964;42.114;24.220;2023-09-12T00:30:47;2.38;;;1.40;;
55065;SDS011;40964;42.114;24.220;2023-09-12T00:33:13;2.25;;;1.50;;
55065;SDS011;40964;42.114;24.220;2023-09-12T00:35:39;1.60;;;1.38;;
55065;SDS011;40964;42.114;24.220;2023-09-12T00:38:04;1.63;;;1.52;;
55065;SDS011;40964;42.114;24.220;2023-09-12T00:40:31;1.75;;;1.30;;
55065;SDS011;40964;42.114;24.220;2023-09-12T00:42:57;3.00;;;1.55;;
55065;SDS011;40964;42.114;24.220;2023-09-12T00:45:23;3.58;;;1.23;;
55065;SDS011;40964;42.114;24.220;2023-09-12T00:47:49;2.67;;;1.48;;
55065;SDS011;40964;42.114;24.220;2023-09-12T00:50:16;1.88;;;1.50;;
55065;SDS011;40964;42.114;24.220;2023-09-12T00:52:43;5.05;;;1.55;;
55065;SDS011;40964;42.114;24.220;2023-09-12T00:55:10;1.50;;;1.30;;
55065;SDS011;40964;42.114;24.220;2023-09-12T00:57:36;2.30;;;1.45;;
55065;SDS011;40964;42.114;24.220;2023-09-12T01:00:05;1.85;;;1.60;;
55065;SDS011;40964;42.114;24.220;2023-09-12T01:02:38;1.80;;;1.33;;
55065;SDS011;40964;42.114;24.220;2023-09-12T01:05:05;3.33;;;1.50;;
55065;SDS011;40964;42.114;24.220;2023-09-12T01:07:35;2.80;;;1.40;;
55065;SDS011;40964;42.114;24.220;2023-09-12T01:10:05;1.73;;;1.40;;
55065;SDS011;40964;42.114;24.220;2023-09-12T01:12:31;2.13;;;1.23;;
55065;SDS011;40964;42.114;24.220;2023-09-12T01:14:57;1.50;;;1.30;;
55065;SDS011;40964;42.114;24.220;2023-09-12T01:17:23;2.35;;;1.60;;
55065;SDS011;40964;42.114;24.220;2023-09-12T01:19:50;3.40;;;1.45;;
55065;SDS011;40964;42.114;24.220;2023-09-12T01:27:53;2.28;;;1.63;;
55065;SDS011;40964;42.114;24.220;2023-09-12T01:30:20;3.60;;;1.30;;
55065;SDS011;40964;42.114;24.220;2023-09-12T01:32:48;2.05;;;1.40;;
55065;SDS011;40964;42.114;24.220;2023-09-12T01:38:12;1.98;;;1.58;;
55065;SDS011;40964;42.114;24.220;2023-09-12T01:40:41;1.85;;;1.50;;
55065;SDS011;40964;42.114;24.220;2023-09-12T01:43:11;1.60;;;1.50;;
55065;SDS011;40964;42.114;24.220;2023-09-12T01:45:38;3.17;;;1.40;;
55065;SDS011;40964;42.114;24.220;2023-09-12T01:48:04;2.45;;;1.25;;
55065;SDS011;40964;42.114;24.220;2023-09-12T01:50:31;3.00;;;1.40;;
55065;SDS011;40964;42.114;24.220;2023-09-12T01:52:58;1.67;;;1.30;;
55065;SDS011;40964;42.114;24.220;2023-09-12T01:55:24;3.03;;;1.30;;
55065;SDS011;40964;42.114;24.220;2023-09-12T01:57:51;6.00;;;1.38;;
55065;SDS011;40964;42.114;24.220;2023-09-12T02:00:17;1.80;;;1.35;;
55065;SDS011;40964;42.114;24.220;2023-09-12T02:02:44;1.73;;;1.30;;
55065;SDS011;40964;42.114;24.220;2023-09-12T02:05:14;4.57;;;1.70;;
55065;SDS011;40964;42.114;24.220;2023-09-12T02:07:45;1.88;;;1.30;;
55065;SDS011;40964;42.114;24.220;2023-09-12T02:10:11;2.83;;;1.90;;
55065;SDS011;40964;42.114;24.220;2023-09-12T02:12:37;3.38;;;1.60;;
55065;SDS011;40964;42.114;24.220;2023-09-12T02:15:04;1.55;;;1.45;;
55065;SDS011;40964;42.114;24.220;2023-09-12T02:17:29;2.00;;;1.48;;
55065;SDS011;40964;42.114;24.220;2023-09-12T02:19:55;2.30;;;1.33;;
55065;SDS011;40964;42.114;24.220;2023-09-12T02:22:20;2.00;;;1.55;;
55065;SDS011;40964;42.114;24.220;2023-09-12T02:24:46;4.65;;;1.48;;
55065;SDS011;40964;42.114;24.220;2023-09-12T02:27:11;1.73;;;1.63;;
55065;SDS011;40964;42.114;24.220;2023-09-12T02:29:40;2.53;;;1.25;;
55065;SDS011;40964;42.114;24.220;2023-09-12T02:32:07;1.40;;;1.30;;
55065;SDS011;40964;42.114;24.220;2023-09-12T02:34:32;2.22;;;1.40;;
55065;SDS011;40964;42.114;24.220;2023-09-12T02:36:58;1.50;;;1.20;;
55065;SDS011;40964;42.114;24.220;2023-09-12T02:39:24;4.35;;;1.30;;
55065;SDS011;40964;42.114;24.220;2023-09-12T02:41:49;3.10;;;1.88;;
55065;SDS011;40964;42.114;24.220;2023-09-12T02:44:15;3.72;;;1.30;;
55065;SDS011;40964;42.114;24.220;2023-09-12T02:46:40;1.60;;;1.33;;
55065;SDS011;40964;42.114;24.220;2023-09-12T02:49:06;1.58;;;1.48;;
55065;SDS011;40964;42.114;24.220;2023-09-12T02:51:31;4.63;;;1.50;;
55065;SDS011;40964;42.114;24.220;2023-09-12T02:53:56;6.15;;;1.50;;
55065;SDS011;40964;42.114;24.220;2023-09-12T02:56:22;4.30;;;1.90;;
55065;SDS011;40964;42.114;24.220;2023-09-12T02:58:48;2.60;;;1.80;;
55065;SDS011;40964;42.114;24.220;2023-09-12T03:01:17;2.85;;;2.00;;
55065;SDS011;40964;42.114;24.220;2023-09-12T03:03:46;3.42;;;2.20;;
55065;SDS011;40964;42.114;24.220;2023-09-12T03:06:12;6.20;;;2.65;;
55065;SDS011;40964;42.114;24.220;2023-09-12T03:08:39;5.28;;;1.70;;
55065;SDS011;40964;42.114;24.220;2023-09-12T03:11:05;2.90;;;1.60;;
55065;SDS011;40964;42.114;24.220;2023-09-12T03:13:32;4.90;;;1.60;;
55065;SDS011;40964;42.114;24.220;2023-09-12T03:16:10;1.95;;;1.60;;
55065;SDS011;40964;42.114;24.220;2023-09-12T03:18:36;2.50;;;1.52;;
55065;SDS011;40964;42.114;24.220;2023-09-12T03:21:02;4.35;;;1.73;;
55065;SDS011;40964;42.114;24.220;2023-09-12T03:23:27;1.85;;;1.58;;
55065;SDS011;40964;42.114;24.220;2023-09-12T03:25:53;3.70;;;1.77;;
55065;SDS011;40964;42.114;24.220;2023-09-12T03:28:18;1.92;;;1.70;;
55065;SDS011;40964;42.114;24.220;2023-09-12T03:30:44;1.77;;;1.60;;
55065;SDS011;40964;42.114;24.220;2023-09-12T03:33:09;2.97;;;2.05;;
55065;SDS011;40964;42.114;24.220;2023-09-12T03:35:35;8.85;;;1.55;;
55065;SDS011;40964;42.114;24.220;2023-09-12T03:38:01;5.00;;;1.92;;
55065;SDS011;40964;42.114;24.220;2023-09-12T03:40:30;4.10;;;2.17;;
55065;SDS011;40964;42.114;24.220;2023-09-12T03:42:56;4.13;;;1.70;;
55065;SDS011;40964;42.114;24.220;2023-09-12T03:45:22;5.28;;;1.75;;
55065;SDS011;40964;42.114;24.220;2023-09-12T03:47:48;4.35;;;2.05;;
55065;SDS011;40964;42.114;24.220;2023-09-12T03:50:14;3.25;;;1.88;;
55065;SDS011;40964;42.114;24.220;2023-09-12T03:52:39;2.70;;;1.83;;
55065;SDS011;40964;42.114;24.220;2023-09-12T03:55:05;5.80;;;1.83;;
55065;SDS011;40964;42.114;24.220;2023-09-12T03:57:31;2.33;;;1.77;;
55065;SDS011;40964;42.114;24.220;2023-09-12T03:59:56;1.63;;;1.45;;
55065;SDS011;40964;42.114;24.220;2023-09-12T04:02:22;1.88;;;1.42;;
55065;SDS011;40964;42.114;24.220;2023-09-12T04:04:47;2.67;;;1.60;;
55065;SDS011;40964;42.114;24.220;2023-09-12T04:07:13;1.98;;;1.48;;
55065;SDS011;40964;42.114;24.220;2023-09-12T04:09:38;5.30;;;1.55;;
55065;SDS011;40964;42.114;24.220;2023-09-12T04:12:04;2.63;;;1.73;;
55065;SDS011;40964;42.114;24.220;2023-09-12T04:14:31;5.78;;;2.45;;
55065;SDS011;40964;42.114;24.220;2023-09-12T04:16:57;4.95;;;2.75;;
55065;SDS011;40964;42.114;24.220;2023-09-12T04:19:23;3.75;;;1.92;;
55065;SDS011;40964;42.114;24.220;2023-09-12T04:21:48;2.08;;;1.88;;
55065;SDS011;40964;42.114;24.220;2023-09-12T04:24:14;2.80;;;1.63;;
55065;SDS011;40964;42.114;24.220;2023-09-12T04:26:41;4.10;;;1.65;;
55065;SDS011;40964;42.114;24.220;2023-09-12T04:29:06;4.60;;;1.92;;
55065;SDS011;40964;42.114;24.220;2023-09-12T04:31:31;3.78;;;2.30;;
55065;SDS011;40964;42.114;24.220;2023-09-12T04:33:57;2.95;;;2.40;;
55065;SDS011;40964;42.114;24.220;2023-09-12T04:36:22;4.32;;;2.03;;
55065;SDS011;40964;42.114;24.220;2023-09-12T04:38:48;3.83;;;1.95;;
55065;SDS011;40964;42.114;24.220;2023-09-12T04:41:13;4.18;;;2.10;;
55065;SDS011;40964;42.114;24.220;2023-09-12T04:43:45;5.47;;;2.30;;
55065;SDS011;40964;42.114;24.220;2023-09-12T04:46:11;3.33;;;2.00;;
55065;SDS011;40964;42.114;24.220;2023-09-12T04:48:37;6.55;;;2.58;;
55065;SDS011;40964;42.114;24.220;2023-09-12T04:51:03;6.55;;;2.33;;
55065;SDS011;40964;42.114;24.220;2023-09-12T04:53:28;7.57;;;2.50;;
55065;SDS011;40964;42.114;24.220;2023-09-12T04:55:59;5.40;;;3.28;;
55065;SDS011;40964;42.114;24.220;2023-09-12T04:58:25;4.40;;;2.47;;
55065;SDS011;40964;42.114;24.220;2023-09-12T05:00:50;3.67;;;1.92;;
55065;SDS011;40964;42.114;24.220;2023-09-12T05:03:16;5.78;;;2.08;;
55065;SDS011;40964;42.114;24.220;2023-09-12T05:05:41;2.47;;;2.00;;
55065;SDS011;40964;42.114;24.220;2023-09-12T05:08:07;5.97;;;3.15;;
55065;SDS011;40964;42.114;24.220;2023-09-12T05:10:32;4.82;;;2.80;;
55065;SDS011;40964;42.114;24.220;2023-09-12T05:12:57;4.47;;;2.60;;
55065;SDS011;40964;42.114;24.220;2023-09-12T05:15:23;7.70;;;3.05;;
55065;SDS011;40964;42.114;24.220;2023-09-12T05:17:49;7.60;;;2.70;;
55065;SDS011;40964;42.114;24.220;2023-09-12T05:20:14;5.93;;;2.60;;
55065;SDS011;40964;42.114;24.220;2023-09-12T05:22:39;4.95;;;2.72;;
55065;SDS011;40964;42.114;24.220;2023-09-12T05:25:05;4.78;;;2.55;;
55065;SDS011;40964;42.114;24.220;2023-09-12T05:27:30;2.60;;;2.22;;
55065;SDS011;40964;42.114;24.220;2023-09-12T05:29:56;7.25;;;2.60;;
55065;SDS011;40964;42.114;24.220;2023-09-12T05:32:21;3.25;;;2.22;;
55065;SDS011;40964;42.114;24.220;2023-09-12T05:34:47;2.63;;;2.30;;
55065;SDS011;40964;42.114;24.220;2023-09-12T05:37:14;3.00;;;2.28;;
55065;SDS011;40964;42.114;24.220;2023-09-12T05:39:40;4.25;;;2.65;;
55065;SDS011;40964;42.114;24.220;2023-09-12T05:42:05;3.10;;;2.42;;
55065;SDS011;40964;42.114;24.220;2023-09-12T05:44:31;4.05;;;2.17;;
55065;SDS011;40964;42.114;24.220;2023-09-12T05:46:56;3.53;;;2.67;;
55065;SDS011;40964;42.114;24.220;2023-09-12T05:49:22;3.47;;;2.60;;
55065;SDS011;40964;42.114;24.220;2023-09-12T05:51:47;5.82;;;3.00;;
55065;SDS011;40964;42.114;24.220;2023-09-12T05:54:13;4.40;;;2.90;;
55065;SDS011;40964;42.114;24.220;2023-09-12T05:56:39;5.07;;;3.60;;
55065;SDS011;40964;42.114;24.220;2023-09-12T05:59:05;5.07;;;2.92;;
55065;SDS011;40964;42.114;24.220;2023-09-12T06:01:31;5.05;;;3.20;;
55065;SDS011;40964;42.114;24.220;2023-09-12T06:03:56;5.93;;;3.08;;
55065;SDS011;40964;42.114;24.220;2023-09-12T06:06:22;5.78;;;4.07;;
55065;SDS011;40964;42.114;24.220;2023-09-12T06:08:48;7.93;;;3.50;;
55065;SDS011;40964;42.114;24.220;2023-09-12T06:11:13;7.25;;;3.85;;
55065;SDS011;40964;42.114;24.220;2023-09-12T06:13:38;3.95;;;3.35;;
55065;SDS011;40964;42.114;24.220;2023-09-12T06:16:05;5.15;;;2.88;;
55065;SDS011;40964;42.114;24.220;2023-09-12T06:18:31;4.82;;;3.10;;
55065;SDS011;40964;42.114;24.220;2023-09-12T06:20:58;7.82;;;2.95;;
55065;SDS011;40964;42.114;24.220;2023-09-12T06:23:24;7.00;;;2.58;;
55065;SDS011;40964;42.114;24.220;2023-09-12T06:25:49;5.32;;;2.83;;
55065;SDS011;40964;42.114;24.220;2023-09-12T06:28:24;5.65;;;2.72;;
55065;SDS011;40964;42.114;24.220;2023-09-12T06:30:54;3.42;;;2.70;;
55065;SDS011;40964;42.114;24.220;2023-09-12T06:33:19;8.15;;;2.38;;
55065;SDS011;40964;42.114;24.220;2023-09-12T06:35:51;3.03;;;2.30;;
55065;SDS011;40964;42.114;24.220;2023-09-12T06:38:18;2.95;;;2.50;;
55065;SDS011;40964;42.114;24.220;2023-09-12T06:40:44;4.57;;;2.50;;
55065;SDS011;40964;42.114;24.220;2023-09-12T06:43:10;3.42;;;2.47;;
55065;SDS011;40964;42.114;24.220;2023-09-12T06:45:35;4.68;;;2.33;;
55065;SDS011;40964;42.114;24.220;2023-09-12T06:48:03;7.88;;;2.20;;
55065;SDS011;40964;42.114;24.220;2023-09-12T06:50:29;2.78;;;2.10;;
55065;SDS011;40964;42.114;24.220;2023-09-12T06:52:55;3.10;;;2.30;;
55065;SDS011;40964;42.114;24.220;2023-09-12T06:55:20;5.10;;;2.20;;
55065;SDS011;40964;42.114;24.220;2023-09-12T06:57:46;4.53;;;2.28;;
55065;SDS011;40964;42.114;24.220;2023-09-12T07:00:12;6.82;;;1.77;;
55065;SDS011;40964;42.114;24.220;2023-09-12T07:02:38;4.30;;;2.10;;
55065;SDS011;40964;42.114;24.220;2023-09-12T07:05:03;4.55;;;2.40;;
55065;SDS011;40964;42.114;24.220;2023-09-12T07:07:29;2.47;;;1.92;;
55065;SDS011;40964;42.114;24.220;2023-09-12T07:09:55;3.75;;;2.38;;
55065;SDS011;40964;42.114;24.220;2023-09-12T07:12:21;4.10;;;2.28;;
55065;SDS011;40964;42.114;24.220;2023-09-12T07:14:47;3.17;;;2.03;;
55065;SDS011;40964;42.114;24.220;2023-09-12T07:17:12;4.03;;;2.10;;
55065;SDS011;40964;42.114;24.220;2023-09-12T07:19:37;2.92;;;2.40;;
55065;SDS011;40964;42.114;24.220;2023-09-12T07:22:03;2.65;;;2.22;;
55065;SDS011;40964;42.114;24.220;2023-09-12T07:24:28;2.88;;;1.98;;
55065;SDS011;40964;42.114;24.220;2023-09-12T07:26:54;4.35;;;2.40;;
55065;SDS011;40964;42.114;24.220;2023-09-12T07:29:19;3.80;;;2.40;;
55065;SDS011;40964;42.114;24.220;2023-09-12T07:31:45;2.50;;;1.98;;
55065;SDS011;40964;42.114;24.220;2023-09-12T07:34:10;5.03;;;2.28;;
55065;SDS011;40964;42.114;24.220;2023-09-12T07:36:37;2.95;;;2.08;;
55065;SDS011;40964;42.114;24.220;2023-09-12T07:39:03;3.28;;;2.35;;
55065;SDS011;40964;42.114;24.220;2023-09-12T07:41:29;2.15;;;1.90;;
55065;SDS011;40964;42.114;24.220;2023-09-12T07:43:55;3.35;;;1.85;;
55065;SDS011;40964;42.114;24.220;2023-09-12T07:46:20;2.70;;;2.13;;
55065;SDS011;40964;42.114;24.220;2023-09-12T07:48:46;1.98;;;1.77;;
55065;SDS011;40964;42.114;24.220;2023-09-12T07:51:15;2.55;;;2.00;;
55065;SDS011;40964;42.114;24.220;2023-09-12T07:53:42;1.95;;;1.65;;
55065;SDS011;40964;42.114;24.220;2023-09-12T07:56:08;2.00;;;1.80;;
55065;SDS011;40964;42.114;24.220;2023-09-12T07:58:37;2.08;;;1.88;;
55065;SDS011;40964;42.114;24.220;2023-09-12T08:01:06;5.28;;;2.08;;
55065;SDS011;40964;42.114;24.220;2023-09-12T08:03:36;2.97;;;2.40;;
55065;SDS011;40964;42.114;24.220;2023-09-12T08:06:04;4.25;;;2.25;;
55065;SDS011;40964;42.114;24.220;2023-09-12T08:08:29;2.42;;;1.92;;
55065;SDS011;40964;42.114;24.220;2023-09-12T08:10:55;2.75;;;2.17;;
55065;SDS011;40964;42.114;24.220;2023-09-12T08:13:22;2.42;;;2.10;;
55065;SDS011;40964;42.114;24.220;2023-09-12T08:15:47;3.20;;;2.25;;
55065;SDS011;40964;42.114;24.220;2023-09-12T08:18:13;5.25;;;2.40;;
55065;SDS011;40964;42.114;24.220;2023-09-12T08:20:38;5.43;;;2.15;;
55065;SDS011;40964;42.114;24.220;2023-09-12T08:23:04;2.17;;;1.85;;
55065;SDS011;40964;42.114;24.220;2023-09-12T08:25:30;3.65;;;2.00;;
55065;SDS011;40964;42.114;24.220;2023-09-12T08:27:55;5.18;;;1.88;;
55065;SDS011;40964;42.114;24.220;2023-09-12T08:30:21;2.97;;;2.13;;
55065;SDS011;40964;42.114;24.220;2023-09-12T08:32:47;2.45;;;1.92;;
55065;SDS011;40964;42.114;24.220;2023-09-12T08:35:13;3.63;;;1.92;;
55065;SDS011;40964;42.114;24.220;2023-09-12T08:37:39;4.30;;;2.50;;
55065;SDS011;40964;42.114;24.220;2023-09-12T08:40:07;2.75;;;2.35;;
55065;SDS011;40964;42.114;24.220;2023-09-12T08:42:40;3.33;;;2.17;;
55065;SDS011;40964;42.114;24.220;2023-09-12T08:45:14;3.70;;;2.25;;
55065;SDS011;40964;42.114;24.220;2023-09-12T08:47:41;5.28;;;2.40;;
55065;SDS011;40964;42.114;24.220;2023-09-12T08:50:09;4.45;;;2.60;;
55065;SDS011;40964;42.114;24.220;2023-09-12T08:52:37;6.15;;;2.63;;
55065;SDS011;40964;42.114;24.220;2023-09-12T08:55:03;6.28;;;2.60;;
55065;SDS011;40964;42.114;24.220;2023-09-12T08:57:29;2.40;;;2.10;;
55065;SDS011;40964;42.114;24.220;2023-09-12T08:59:58;7.97;;;2.30;;
55065;SDS011;40964;42.114;24.220;2023-09-12T09:02:31;3.40;;;2.40;;
55065;SDS011;40964;42.114;24.220;2023-09-12T09:04:58;5.13;;;2.60;;
55065;SDS011;40964;42.114;24.220;2023-09-12T09:07:25;3.00;;;2.00;;
55065;SDS011;40964;42.114;24.220;2023-09-12T09:09:53;3.75;;;2.00;;
55065;SDS011;40964;42.114;24.220;2023-09-12T09:12:19;2.10;;;1.75;;
55065;SDS011;40964;42.114;24.220;2023-09-12T09:14:44;2.45;;;2.25;;
55065;SDS011;40964;42.114;24.220;2023-09-12T09:17:10;5.50;;;2.47;;
55065;SDS011;40964;42.114;24.220;2023-09-12T09:19:41;4.38;;;2.60;;
55065;SDS011;40964;42.114;24.220;2023-09-12T09:22:08;2.38;;;2.17;;
55065;SDS011;40964;42.114;24.220;2023-09-12T09:24:33;4.32;;;2.00;;
55065;SDS011;40964;42.114;24.220;2023-09-12T09:26:59;2.70;;;2.20;;
55065;SDS011;40964;42.114;24.220;2023-09-12T09:29:26;4.65;;;2.10;;
55065;SDS011;40964;42.114;24.220;2023-09-12T09:31:57;4.57;;;2.22;;
55065;SDS011;40964;42.114;24.220;2023-09-12T09:34:24;2.15;;;1.85;;
55065;SDS011;40964;42.114;24.220;2023-09-12T09:36:55;2.28;;;2.08;;
55065;SDS011;40964;42.114;24.220;2023-09-12T09:39:22;3.55;;;1.85;;
55065;SDS011;40964;42.114;24.220;2023-09-12T09:41:49;1.75;;;1.60;;
55065;SDS011;40964;42.114;24.220;2023-09-12T09:44:16;5.22;;;1.80;;
55065;SDS011;40964;42.114;24.220;2023-09-12T09:46:43;2.55;;;1.90;;
55065;SDS011;40964;42.114;24.220;2023-09-12T09:49:15;2.50;;;1.90;;
55065;SDS011;40964;42.114;24.220;2023-09-12T09:51:44;2.42;;;1.80;;
55065;SDS011;40964;42.114;24.220;2023-09-12T09:54:10;3.90;;;1.90;;
55065;SDS011;40964;42.114;24.220;2023-09-12T09:56:44;2.42;;;1.48;;
55065;SDS011;40964;42.114;24.220;2023-09-12T09:59:23;2.17;;;1.60;;
55065;SDS011;40964;42.114;24.220;2023-09-12T10:01:50;11.63;;;2.42;;
55065;SDS011;40964;42.114;24.220;2023-09-12T10:04:21;2.67;;;1.52;;
55065;SDS011;40964;42.114;24.220;2023-09-12T10:06:48;3.38;;;1.65;;
55065;SDS011;40964;42.114;24.220;2023-09-12T10:09:15;2.15;;;1.60;;
55065;SDS011;40964;42.114;24.220;2023-09-12T10:11:45;2.13;;;1.70;;
55065;SDS011;40964;42.114;24.220;2023-09-12T10:14:13;3.35;;;1.48;;
55065;SDS011;40964;42.114;24.220;2023-09-12T10:16:49;4.15;;;1.73;;
55065;SDS011;40964;42.114;24.220;2023-09-12T10:24:34;2.33;;;1.60;;
55065;SDS011;40964;42.114;24.220;2023-09-12T10:27:01;3.40;;;2.08;;
55065;SDS011;40964;42.114;24.220;2023-09-12T10:29:29;1.95;;;1.60;;
55065;SDS011;40964;42.114;24.220;2023-09-12T10:31:55;2.92;;;1.80;;
55065;SDS011;40964;42.114;24.220;2023-09-12T10:34:21;3.38;;;1.80;;
55065;SDS011;40964;42.114;24.220;2023-09-12T10:36:49;2.92;;;1.77;;
55065;SDS011;40964;42.114;24.220;2023-09-12T10:39:16;3.08;;;1.90;;
55065;SDS011;40964;42.114;24.220;2023-09-12T10:41:44;3.25;;;1.95;;
55065;SDS011;40964;42.114;24.220;2023-09-12T10:44:15;2.97;;;2.20;;
55065;SDS011;40964;42.114;24.220;2023-09-12T10:46:42;2.85;;;2.17;;
55065;SDS011;40964;42.114;24.220;2023-09-12T10:49:10;3.55;;;1.92;;
55065;SDS011;40964;42.114;24.220;2023-09-12T10:51:46;2.95;;;1.80;;
55065;SDS011;40964;42.114;24.220;2023-09-12T10:54:13;3.30;;;2.40;;
55065;SDS011;40964;42.114;24.220;2023-09-12T10:56:40;3.88;;;2.80;;
55065;SDS011;40964;42.114;24.220;2023-09-12T11:01:44;2.17;;;1.55;;
55065;SDS011;40964;42.114;24.220;2023-09-12T11:06:47;6.65;;;2.25;;
55065;SDS011;40964;42.114;24.220;2023-09-12T11:11:39;2.05;;;1.90;;
55065;SDS011;40964;42.114;24.220;2023-09-12T11:14:08;6.50;;;2.08;;
55065;SDS011;40964;42.114;24.220;2023-09-12T11:16:33;3.10;;;2.05;;
55065;SDS011;40964;42.114;24.220;2023-09-12T11:19:21;5.75;;;2.20;;
55065;SDS011;40964;42.114;24.220;2023-09-12T11:21:51;2.97;;;1.85;;
55065;SDS011;40964;42.114;24.220;2023-09-12T11:24:18;3.30;;;2.35;;
55065;SDS011;40964;42.114;24.220;2023-09-12T11:26:52;5.82;;;2.33;;
55065;SDS011;40964;42.114;24.220;2023-09-12T11:29:28;3.28;;;1.73;;
55065;SDS011;40964;42.114;24.220;2023-09-12T11:31:58;4.35;;;1.80;;
55065;SDS011;40964;42.114;24.220;2023-09-12T11:34:25;7.82;;;2.10;;
55065;SDS011;40964;42.114;24.220;2023-09-12T11:36:54;4.75;;;2.30;;
55065;SDS011;40964;42.114;24.220;2023-09-12T11:39:27;3.47;;;1.90;;
55065;SDS011;40964;42.114;24.220;2023-09-12T11:41:55;6.75;;;2.10;;
55065;SDS011;40964;42.114;24.220;2023-09-12T11:44:21;3.25;;;2.05;;
55065;SDS011;40964;42.114;24.220;2023-09-12T11:46:48;4.10;;;1.70;;
55065;SDS011;40964;42.114;24.220;2023-09-12T11:49:17;3.45;;;1.75;;
55065;SDS011;40964;42.114;24.220;2023-09-12T11:51:53;5.30;;;2.05;;
55065;SDS011;40964;42.114;24.220;2023-09-12T11:54:25;6.30;;;2.28;;
55065;SDS011;40964;42.114;24.220;2023-09-12T11:56:52;5.00;;;1.63;;
55065;SDS011;40964;42.114;24.220;2023-09-12T12:02:05;4.95;;;2.15;;
55065;SDS011;40964;42.114;24.220;2023-09-12T12:04:32;4.38;;;2.13;;
55065;SDS011;40964;42.114;24.220;2023-09-12T12:06:57;5.90;;;2.15;;
55065;SDS011;40964;42.114;24.220;2023-09-12T12:09:23;3.03;;;1.85;;
55065;SDS011;40964;42.114;24.220;2023-09-12T12:11:48;3.78;;;2.20;;
55065;SDS011;40964;42.114;24.220;2023-09-12T12:14:15;7.60;;;2.80;;
55065;SDS011;40964;42.114;24.220;2023-09-12T12:16:42;4.55;;;2.20;;
55065;SDS011;40964;42.114;24.220;2023-09-12T12:19:08;4.20;;;2.20;;
55065;SDS011;40964;42.114;24.220;2023-09-12T12:21:35;6.82;;;2.53;;
55065;SDS011;40964;42.114;24.220;2023-09-12T12:24:01;3.97;;;1.98;;
55065;SDS011;40964;42.114;24.220;2023-09-12T12:26:28;3.50;;;2.17;;
55065;SDS011;40964;42.114;24.220;2023-09-12T12:28:53;3.60;;;2.30;;
55065;SDS011;40964;42.114;24.220;2023-09-12T12:31:19;6.05;;;1.95;;
55065;SDS011;40964;42.114;24.220;2023-09-12T12:33:48;2.33;;;2.00;;
55065;SDS011;40964;42.114;24.220;2023-09-12T12:36:14;2.58;;;1.80;;
55065;SDS011;40964;42.114;24.220;2023-09-12T12:38:40;4.45;;;2.03;;
55065;SDS011;40964;42.114;24.220;2023-09-12T12:41:08;2.22;;;1.90;;
55065;SDS011;40964;42.114;24.220;2023-09-12T12:43:34;5.30;;;2.17;;
55065;SDS011;40964;42.114;24.220;2023-09-12T12:45:59;3.70;;;2.38;;
55065;SDS011;40964;42.114;24.220;2023-09-12T12:48:32;2.78;;;2.10;;
55065;SDS011;40964;42.114;24.220;2023-09-12T12:50:59;7.45;;;2.03;;
55065;SDS011;40964;42.114;24.220;2023-09-12T12:53:40;3.88;;;1.90;;
55065;SDS011;40964;42.114;24.220;2023-09-12T12:56:07;3.80;;;2.20;;
55065;SDS011;40964;42.114;24.220;2023-09-12T12:58:33;4.65;;;2.05;;
55065;SDS011;40964;42.114;24.220;2023-09-12T13:01:00;5.28;;;2.65;;
55065;SDS011;40964;42.114;24.220;2023-09-12T13:03:25;5.78;;;2.05;;
55065;SDS011;40964;42.114;24.220;2023-09-12T13:05:51;5.78;;;2.20;;
55065;SDS011;40964;42.114;24.220;2023-09-12T13:08:16;3.20;;;1.98;;
55065;SDS011;40964;42.114;24.220;2023-09-12T13:10:43;2.00;;;1.77;;
55065;SDS011;40964;42.114;24.220;2023-09-12T13:13:10;5.43;;;1.95;;
55065;SDS011;40964;42.114;24.220;2023-09-12T13:15:36;3.58;;;2.10;;
55065;SDS011;40964;42.114;24.220;2023-09-12T13:18:04;4.05;;;2.30;;
55065;SDS011;40964;42.114;24.220;2023-09-12T13:20:30;4.05;;;2.60;;
55065;SDS011;40964;42.114;24.220;2023-09-12T13:22:55;4.10;;;2.38;;
55065;SDS011;40964;42.114;24.220;2023-09-12T13:25:21;6.50;;;2.20;;
55065;SDS011;40964;42.114;24.220;2023-09-12T13:27:48;2.65;;;1.75;;
55065;SDS011;40964;42.114;24.220;2023-09-12T13:30:14;3.17;;;1.83;;
55065;SDS011;40964;42.114;24.220;2023-09-12T13:32:40;6.95;;;2.20;;
55065;SDS011;40964;42.114;24.220;2023-09-12T13:35:05;4.20;;;2.00;;
55065;SDS011;40964;42.114;24.220;2023-09-12T13:37:32;7.93;;;2.10;;
55065;SDS011;40964;42.114;24.220;2023-09-12T13:39:58;3.75;;;1.85;;
55065;SDS011;40964;42.114;24.220;2023-09-12T13:42:24;3.92;;;2.05;;
55065;SDS011;40964;42.114;24.220;2023-09-12T13:44:51;3.05;;;2.22;;
55065;SDS011;40964;42.114;24.220;2023-09-12T13:47:16;4.50;;;1.77;;
55065;SDS011;40964;42.114;24.220;2023-09-12T13:49:49;2.47;;;2.10;;
55065;SDS011;40964;42.114;24.220;2023-09-12T13:52:21;3.08;;;2.00;;
55065;SDS011;40964;42.114;24.220;2023-09-12T13:54:46;4.20;;;2.30;;
55065;SDS011;40964;42.114;24.220;2023-09-12T13:57:12;2.25;;;2.03;;
55065;SDS011;40964;42.114;24.220;2023-09-12T13:59:38;4.53;;;2.20;;
55065;SDS011;40964;42.114;24.220;2023-09-12T14:02:04;7.90;;;2.22;;
55065;SDS011;40964;42.114;24.220;2023-09-12T14:04:29;2.85;;;1.75;;
55065;SDS011;40964;42.114;24.220;2023-09-12T14:06:54;5.50;;;2.03;;
55065;SDS011;40964;42.114;24.220;2023-09-12T14:09:20;3.97;;;2.10;;
55065;SDS011;40964;42.114;24.220;2023-09-12T14:11:49;4.18;;;2.10;;
55065;SDS011;40964;42.114;24.220;2023-09-12T14:14:17;2.67;;;2.00;;
55065;SDS011;40964;42.114;24.220;2023-09-12T14:16:43;5.07;;;2.20;;
55065;SDS011;40964;42.114;24.220;2023-09-12T14:19:09;7.75;;;2.10;;
55065;SDS011;40964;42.114;24.220;2023-09-12T14:21:35;6.68;;;2.00;;
55065;SDS011;40964;42.114;24.220;2023-09-12T14:24:01;7.43;;;2.03;;
55065;SDS011;40964;42.114;24.220;2023-09-12T14:26:31;2.95;;;2.10;;
55065;SDS011;40964;42.114;24.220;2023-09-12T14:28:59;7.07;;;2.03;;
55065;SDS011;40964;42.114;24.220;2023-09-12T14:31:25;3.35;;;2.15;;
55065;SDS011;40964;42.114;24.220;2023-09-12T14:33:50;3.50;;;2.20;;
55065;SDS011;40964;42.114;24.220;2023-09-12T14:36:17;3.50;;;2.47;;
55065;SDS011;40964;42.114;24.220;2023-09-12T14:38:44;3.85;;;2.35;;
55065;SDS011;40964;42.114;24.220;2023-09-12T14:41:15;9.85;;;2.70;;
55065;SDS011;40964;42.114;24.220;2023-09-12T14:43:40;3.20;;;2.33;;
55065;SDS011;40964;42.114;24.220;2023-09-12T14:46:06;9.38;;;2.67;;
55065;SDS011;40964;42.114;24.220;2023-09-12T14:48:33;2.83;;;2.17;;
55065;SDS011;40964;42.114;24.220;2023-09-12T14:51:01;3.40;;;2.30;;
55065;SDS011;40964;42.114;24.220;2023-09-12T14:53:27;2.65;;;2.40;;
55065;SDS011;40964;42.114;24.220;2023-09-12T14:55:53;5.70;;;2.40;;